Aérodrome :
LOGIN :

S'inscrire | Disclaimer

   EN    FR    IT 

 










Légende :    VFR   VFR Marginal   IFR   IFR Intensif   IFR Très Intensif
Visi : 
Plafond : 
>= 8 km
>= 3000ft
5 à 8 km
1000 à 3000 ft
1500m à 5 km
500 à 1000 ft
800 à 1500m
200 à 500 ft
< 800m
< 200 ft
Symboles :   Orages  Brouillard  Fortes neiges  Fortes précipitations  Vent > 20 kt
SIGMETs :   Divers  Orages  Givrage  Turbulence  Onde Orograph.  Cendres Volcan.






- Altitude de l'aérodrome : 885 ft
- Code IATA : BAS


LFSB - Bale-Mulhouse

DERNIER METAR :
  • 301530Z 08003KT 020V120 CAVOK 20/08 Q1012 NOSIG

METARs EXPIRÉS :
  • 301500Z 05004KT 010V090 9999 FEW046 20/07 Q1013 NOSIG
  • 301430Z 07004KT 350V120 9999 FEW046 20/07 Q1013 NOSIG
  • 301400Z VRB03KT 9999 FEW043 20/08 Q1013 NOSIG
  • 301330Z 04005KT 350V080 9999 FEW043 19/09 Q1014 NOSIG
  • 301300Z VRB04KT 9999 FEW040 19/08 Q1014 NOSIG

TAF TAF LFSB
Valide du 30 à 12h jusqu'au 01 à 12h UTC


301100Z 3012/0112 12005KT 9999 FEW030
PROB30
TEMPO 0103/0106 3000 BR
BECMG 0109/0112 -RA
Météo : +33 3 89 90 31 11



MET'MAP, la Météo Aéronautique d'un coup d'oeil ! - Copyright ORBIFLY Décembre 2007 - Disclaimer

ORBIFLY MET'MAP TEAM :

Programmation & Développement : Alexandra Zaïnal
Sur une idée originale de : Baudouin d'Aumeries
Assistance à la programmation : Marc-Olivier Méhu
Soutien technique & logistique : Manuel Goepfert

Contact : metmap@orbifly.com




SOURCES & CREDITS :

   NOAA